sensor_id;sensor_type;location;lat;lon;timestamp;temperature;humidity
12152;DHT22;6139;51.274;7.128;2023-08-20T00:00:28;21.00;99.90
12152;DHT22;6139;51.274;7.128;2023-08-20T00:01:30;20.90;99.90
12152;DHT22;6139;51.274;7.128;2023-08-20T00:02:32;21.00;99.90
12152;DHT22;6139;51.274;7.128;2023-08-20T00:03:34;20.90;99.90
12152;DHT22;6139;51.274;7.128;2023-08-20T00:04:37;20.90;99.90
12152;DHT22;6139;51.274;7.128;2023-08-20T00:05:39;20.90;99.90
12152;DHT22;6139;51.274;7.128;2023-08-20T00:06:41;20.90;99.90
12152;DHT22;6139;51.274;7.128;2023-08-20T00:07:44;20.90;99.90
12152;DHT22;6139;51.274;7.128;2023-08-20T00:08:46;20.80;99.90
12152;DHT22;6139;51.274;7.128;2023-08-20T00:09:48;20.80;99.90
12152;DHT22;6139;51.274;7.128;2023-08-20T00:10:50;20.80;1.00
12152;DHT22;6139;51.274;7.128;2023-08-20T00:11:51;20.70;1.00
12152;DHT22;6139;51.274;7.128;2023-08-20T00:12:53;20.70;1.00
12152;DHT22;6139;51.274;7.128;2023-08-20T00:13:54;20.70;1.00
12152;DHT22;6139;51.274;7.128;2023-08-20T00:14:58;20.70;1.00
12152;DHT22;6139;51.274;7.128;2023-08-20T00:16:00;20.80;1.00
12152;DHT22;6139;51.274;7.128;2023-08-20T00:17:02;20.70;99.90
12152;DHT22;6139;51.274;7.128;2023-08-20T00:18:04;20.80;1.00
12152;DHT22;6139;51.274;7.128;2023-08-20T00:19:07;20.80;1.00
12152;DHT22;6139;51.274;7.128;2023-08-20T00:20:09;20.80;99.90
12152;DHT22;6139;51.274;7.128;2023-08-20T00:21:14;20.80;99.90
12152;DHT22;6139;51.274;7.128;2023-08-20T00:22:15;20.80;99.90
12152;DHT22;6139;51.274;7.128;2023-08-20T00:23:18;20.80;99.90
12152;DHT22;6139;51.274;7.128;2023-08-20T00:24:20;20.70;99.90
12152;DHT22;6139;51.274;7.128;2023-08-20T00:25:24;20.70;99.90
12152;DHT22;6139;51.274;7.128;2023-08-20T00:26:26;20.70;1.00
12152;DHT22;6139;51.274;7.128;2023-08-20T00:27:28;20.70;1.00
12152;DHT22;6139;51.274;7.128;2023-08-20T00:28:29;20.70;1.00
12152;DHT22;6139;51.274;7.128;2023-08-20T00:29:31;20.70;1.00
12152;DHT22;6139;51.274;7.128;2023-08-20T00:30:32;20.70;1.00
12152;DHT22;6139;51.274;7.128;2023-08-20T00:31:34;20.70;99.90
12152;DHT22;6139;51.274;7.128;2023-08-20T00:32:35;20.70;1.00
12152;DHT22;6139;51.274;7.128;2023-08-20T00:33:37;20.70;1.00
12152;DHT22;6139;51.274;7.128;2023-08-20T00:34:39;20.70;99.90
12152;DHT22;6139;51.274;7.128;2023-08-20T00:35:41;20.60;1.00
12152;DHT22;6139;51.274;7.128;2023-08-20T00:36:43;20.60;1.00
12152;DHT22;6139;51.274;7.128;2023-08-20T00:37:45;20.60;1.00
12152;DHT22;6139;51.274;7.128;2023-08-20T00:38:46;20.60;1.00
12152;DHT22;6139;51.274;7.128;2023-08-20T00:39:48;20.50;1.00
12152;DHT22;6139;51.274;7.128;2023-08-20T00:40:51;20.50;1.00
12152;DHT22;6139;51.274;7.128;2023-08-20T00:41:53;20.50;1.00
12152;DHT22;6139;51.274;7.128;2023-08-20T00:42:54;20.50;1.00
12152;DHT22;6139;51.274;7.128;2023-08-20T00:43:56;20.40;1.00
12152;DHT22;6139;51.274;7.128;2023-08-20T00:44:57;20.50;1.00
12152;DHT22;6139;51.274;7.128;2023-08-20T00:45:59;20.40;1.00
12152;DHT22;6139;51.274;7.128;2023-08-20T00:47:02;20.50;1.00
12152;DHT22;6139;51.274;7.128;2023-08-20T00:48:06;20.50;1.00
12152;DHT22;6139;51.274;7.128;2023-08-20T00:49:07;20.40;1.00
12152;DHT22;6139;51.274;7.128;2023-08-20T00:50:09;20.40;1.00
12152;DHT22;6139;51.274;7.128;2023-08-20T00:51:12;20.40;1.00
12152;DHT22;6139;51.274;7.128;2023-08-20T00:52:14;20.40;1.00
12152;DHT22;6139;51.274;7.128;2023-08-20T00:53:17;20.40;1.00
12152;DHT22;6139;51.274;7.128;2023-08-20T00:54:22;20.40;1.00
12152;DHT22;6139;51.274;7.128;2023-08-20T00:55:23;20.40;1.00
12152;DHT22;6139;51.274;7.128;2023-08-20T00:56:26;20.40;1.00
12152;DHT22;6139;51.274;7.128;2023-08-20T00:57:28;20.30;1.00
12152;DHT22;6139;51.274;7.128;2023-08-20T00:58:31;20.30;1.00
12152;DHT22;6139;51.274;7.128;2023-08-20T00:59:33;20.30;1.00
12152;DHT22;6139;51.274;7.128;2023-08-20T01:00:35;20.30;1.00
12152;DHT22;6139;51.274;7.128;2023-08-20T01:01:37;20.20;1.00
12152;DHT22;6139;51.274;7.128;2023-08-20T01:02:40;20.20;1.00
12152;DHT22;6139;51.274;7.128;2023-08-20T01:03:41;20.30;1.00
12152;DHT22;6139;51.274;7.128;2023-08-20T01:04:43;20.30;1.00
12152;DHT22;6139;51.274;7.128;2023-08-20T01:05:50;20.30;1.00
12152;DHT22;6139;51.274;7.128;2023-08-20T01:07:03;20.30;1.00
12152;DHT22;6139;51.274;7.128;2023-08-20T01:08:16;20.30;1.00
12152;DHT22;6139;51.274;7.128;2023-08-20T01:09:33;20.30;1.00
12152;DHT22;6139;51.274;7.128;2023-08-20T01:10:44;20.30;1.00
12152;DHT22;6139;51.274;7.128;2023-08-20T01:11:57;20.30;1.00
12152;DHT22;6139;51.274;7.128;2023-08-20T01:13:00;20.30;1.00
12152;DHT22;6139;51.274;7.128;2023-08-20T01:14:04;20.30;1.00
12152;DHT22;6139;51.274;7.128;2023-08-20T01:15:14;20.30;1.00
12152;DHT22;6139;51.274;7.128;2023-08-20T01:16:18;20.30;1.00
12152;DHT22;6139;51.274;7.128;2023-08-20T01:17:19;20.30;1.00
12152;DHT22;6139;51.274;7.128;2023-08-20T01:18:21;20.20;1.00
12152;DHT22;6139;51.274;7.128;2023-08-20T01:19:23;20.20;1.00
12152;DHT22;6139;51.274;7.128;2023-08-20T01:20:29;20.20;1.00
12152;DHT22;6139;51.274;7.128;2023-08-20T01:21:38;20.10;1.00
12152;DHT22;6139;51.274;7.128;2023-08-20T01:22:59;20.10;1.00
12152;DHT22;6139;51.274;7.128;2023-08-20T01:24:18;20.10;1.00
12152;DHT22;6139;51.274;7.128;2023-08-20T01:25:30;20.10;1.00
12152;DHT22;6139;51.274;7.128;2023-08-20T01:26:54;20.10;1.00
12152;DHT22;6139;51.274;7.128;2023-08-20T01:29:16;20.10;1.00
12152;DHT22;6139;51.274;7.128;2023-08-20T01:30:18;20.00;1.00
12152;DHT22;6139;51.274;7.128;2023-08-20T01:31:22;20.00;1.00
12152;DHT22;6139;51.274;7.128;2023-08-20T01:32:26;20.00;1.00
12152;DHT22;6139;51.274;7.128;2023-08-20T01:33:29;20.00;1.00
12152;DHT22;6139;51.274;7.128;2023-08-20T01:34:33;20.00;1.00
12152;DHT22;6139;51.274;7.128;2023-08-20T01:35:35;20.10;1.00
12152;DHT22;6139;51.274;7.128;2023-08-20T01:36:37;20.10;1.00
12152;DHT22;6139;51.274;7.128;2023-08-20T01:37:40;20.10;1.00
12152;DHT22;6139;51.274;7.128;2023-08-20T01:38:41;20.00;1.00
12152;DHT22;6139;51.274;7.128;2023-08-20T01:39:43;20.10;1.00
12152;DHT22;6139;51.274;7.128;2023-08-20T01:40:44;20.10;1.00
12152;DHT22;6139;51.274;7.128;2023-08-20T01:41:46;20.00;1.00
12152;DHT22;6139;51.274;7.128;2023-08-20T01:42:47;20.00;1.00
12152;DHT22;6139;51.274;7.128;2023-08-20T01:43:49;20.00;1.00
12152;DHT22;6139;51.274;7.128;2023-08-20T01:44:52;20.10;1.00
12152;DHT22;6139;51.274;7.128;2023-08-20T01:45:54;20.10;1.00
12152;DHT22;6139;51.274;7.128;2023-08-20T01:46:55;20.00;1.00
12152;DHT22;6139;51.274;7.128;2023-08-20T01:47:57;20.00;1.00
12152;DHT22;6139;51.274;7.128;2023-08-20T01:48:58;20.10;1.00
12152;DHT22;6139;51.274;7.128;2023-08-20T01:50:00;20.00;1.00
12152;DHT22;6139;51.274;7.128;2023-08-20T01:51:01;20.10;1.00
12152;DHT22;6139;51.274;7.128;2023-08-20T01:52:04;20.00;1.00
12152;DHT22;6139;51.274;7.128;2023-08-20T01:53:05;20.00;1.00
12152;DHT22;6139;51.274;7.128;2023-08-20T01:54:07;20.10;1.00
12152;DHT22;6139;51.274;7.128;2023-08-20T01:55:09;20.10;1.00
12152;DHT22;6139;51.274;7.128;2023-08-20T01:56:13;20.10;1.00
12152;DHT22;6139;51.274;7.128;2023-08-20T01:57:15;20.10;1.00
12152;DHT22;6139;51.274;7.128;2023-08-20T01:58:17;20.10;8.80
12152;DHT22;6139;51.274;7.128;2023-08-20T01:59:21;20.00;24.10
12152;DHT22;6139;51.274;7.128;2023-08-20T02:00:23;20.00;20.40
12152;DHT22;6139;51.274;7.128;2023-08-20T02:01:25;20.00;47.30
12152;DHT22;6139;51.274;7.128;2023-08-20T02:02:27;20.10;39.80
12152;DHT22;6139;51.274;7.128;2023-08-20T02:03:29;20.00;40.20
12152;DHT22;6139;51.274;7.128;2023-08-20T02:04:30;20.00;54.30
12152;DHT22;6139;51.274;7.128;2023-08-20T02:05:33;20.00;29.20
12152;DHT22;6139;51.274;7.128;2023-08-20T02:06:34;20.00;16.00
12152;DHT22;6139;51.274;7.128;2023-08-20T02:07:36;20.00;30.00
12152;DHT22;6139;51.274;7.128;2023-08-20T02:08:37;20.00;33.90
12152;DHT22;6139;51.274;7.128;2023-08-20T02:09:39;20.00;33.30
12152;DHT22;6139;51.274;7.128;2023-08-20T02:10:40;20.00;57.50
12152;DHT22;6139;51.274;7.128;2023-08-20T02:11:42;20.00;34.80
12152;DHT22;6139;51.274;7.128;2023-08-20T02:12:43;20.00;49.30
12152;DHT22;6139;51.274;7.128;2023-08-20T02:13:45;20.00;61.40
12152;DHT22;6139;51.274;7.128;2023-08-20T02:14:47;20.00;52.70
12152;DHT22;6139;51.274;7.128;2023-08-20T02:15:59;20.00;85.70
12152;DHT22;6139;51.274;7.128;2023-08-20T02:17:02;20.00;99.90
12152;DHT22;6139;51.274;7.128;2023-08-20T02:18:05;20.00;99.90
12152;DHT22;6139;51.274;7.128;2023-08-20T02:19:06;20.00;99.90
12152;DHT22;6139;51.274;7.128;2023-08-20T02:20:08;20.00;90.30
12152;DHT22;6139;51.274;7.128;2023-08-20T02:21:11;20.00;76.70
12152;DHT22;6139;51.274;7.128;2023-08-20T02:22:12;20.00;61.10
12152;DHT22;6139;51.274;7.128;2023-08-20T02:23:14;20.00;87.30
12152;DHT22;6139;51.274;7.128;2023-08-20T02:24:15;20.00;98.50
12152;DHT22;6139;51.274;7.128;2023-08-20T02:25:17;20.00;84.90
12152;DHT22;6139;51.274;7.128;2023-08-20T02:26:18;20.00;96.90
12152;DHT22;6139;51.274;7.128;2023-08-20T02:27:19;20.00;99.90
12152;DHT22;6139;51.274;7.128;2023-08-20T02:28:21;20.00;99.90
12152;DHT22;6139;51.274;7.128;2023-08-20T02:29:22;20.00;99.90
12152;DHT22;6139;51.274;7.128;2023-08-20T02:30:24;20.00;99.90
12152;DHT22;6139;51.274;7.128;2023-08-20T02:31:26;20.00;99.90
12152;DHT22;6139;51.274;7.128;2023-08-20T02:32:28;19.90;99.90
12152;DHT22;6139;51.274;7.128;2023-08-20T02:33:29;19.90;99.90
12152;DHT22;6139;51.274;7.128;2023-08-20T02:34:31;19.90;99.90
12152;DHT22;6139;51.274;7.128;2023-08-20T02:35:32;19.90;99.90
12152;DHT22;6139;51.274;7.128;2023-08-20T02:36:35;19.90;99.90
12152;DHT22;6139;51.274;7.128;2023-08-20T02:37:37;19.90;99.90
12152;DHT22;6139;51.274;7.128;2023-08-20T02:38:39;19.90;99.90
12152;DHT22;6139;51.274;7.128;2023-08-20T02:39:40;19.90;99.90
12152;DHT22;6139;51.274;7.128;2023-08-20T02:40:43;19.90;99.90
12152;DHT22;6139;51.274;7.128;2023-08-20T02:41:44;20.00;99.90
12152;DHT22;6139;51.274;7.128;2023-08-20T02:42:46;19.90;99.90
12152;DHT22;6139;51.274;7.128;2023-08-20T02:43:47;19.90;99.90
12152;DHT22;6139;51.274;7.128;2023-08-20T02:44:49;19.90;99.90
12152;DHT22;6139;51.274;7.128;2023-08-20T02:45:50;19.90;99.90
12152;DHT22;6139;51.274;7.128;2023-08-20T02:46:54;19.90;99.90
12152;DHT22;6139;51.274;7.128;2023-08-20T02:47:55;19.90;99.90
12152;DHT22;6139;51.274;7.128;2023-08-20T02:48:56;19.90;99.90
12152;DHT22;6139;51.274;7.128;2023-08-20T02:49:58;19.90;99.90
12152;DHT22;6139;51.274;7.128;2023-08-20T02:50:59;19.90;99.90
12152;DHT22;6139;51.274;7.128;2023-08-20T02:52:01;19.90;99.90
12152;DHT22;6139;51.274;7.128;2023-08-20T02:53:04;19.90;99.90
12152;DHT22;6139;51.274;7.128;2023-08-20T02:54:06;19.90;99.90
12152;DHT22;6139;51.274;7.128;2023-08-20T02:55:07;19.90;99.90
12152;DHT22;6139;51.274;7.128;2023-08-20T02:56:09;19.90;99.90
12152;DHT22;6139;51.274;7.128;2023-08-20T02:57:10;19.90;99.90
12152;DHT22;6139;51.274;7.128;2023-08-20T02:58:12;20.00;99.90
12152;DHT22;6139;51.274;7.128;2023-08-20T02:59:13;20.00;99.90
12152;DHT22;6139;51.274;7.128;2023-08-20T03:00:15;20.00;99.90
12152;DHT22;6139;51.274;7.128;2023-08-20T03:01:20;20.00;99.90
12152;DHT22;6139;51.274;7.128;2023-08-20T03:02:23;20.10;99.90
12152;DHT22;6139;51.274;7.128;2023-08-20T03:03:25;20.10;99.90
12152;DHT22;6139;51.274;7.128;2023-08-20T03:04:27;20.10;99.90
12152;DHT22;6139;51.274;7.128;2023-08-20T03:05:28;20.20;99.90
12152;DHT22;6139;51.274;7.128;2023-08-20T03:06:30;20.10;99.90
12152;DHT22;6139;51.274;7.128;2023-08-20T03:07:31;20.10;99.90
12152;DHT22;6139;51.274;7.128;2023-08-20T03:08:33;20.10;96.10
12152;DHT22;6139;51.274;7.128;2023-08-20T03:09:34;20.10;94.80
12152;DHT22;6139;51.274;7.128;2023-08-20T03:10:36;20.10;64.80
12152;DHT22;6139;51.274;7.128;2023-08-20T03:11:37;20.10;58.80
12152;DHT22;6139;51.274;7.128;2023-08-20T03:12:39;20.10;53.20
12152;DHT22;6139;51.274;7.128;2023-08-20T03:13:40;20.10;36.00
12152;DHT22;6139;51.274;7.128;2023-08-20T03:14:42;20.10;52.30
12152;DHT22;6139;51.274;7.128;2023-08-20T03:15:42;20.10;61.50
12152;DHT22;6139;51.274;7.128;2023-08-20T03:16:44;20.10;43.40
12152;DHT22;6139;51.274;7.128;2023-08-20T03:17:47;20.10;22.60
12152;DHT22;6139;51.274;7.128;2023-08-20T03:18:49;20.10;32.70
12152;DHT22;6139;51.274;7.128;2023-08-20T03:19:57;20.10;32.20
12152;DHT22;6139;51.274;7.128;2023-08-20T03:20:59;20.10;37.30
12152;DHT22;6139;51.274;7.128;2023-08-20T03:22:00;20.10;21.40
12152;DHT22;6139;51.274;7.128;2023-08-20T03:23:02;20.10;32.90
12152;DHT22;6139;51.274;7.128;2023-08-20T03:24:04;20.10;11.40
12152;DHT22;6139;51.274;7.128;2023-08-20T03:25:07;20.10;6.00
12152;DHT22;6139;51.274;7.128;2023-08-20T03:26:08;20.10;1.00
12152;DHT22;6139;51.274;7.128;2023-08-20T03:27:10;20.10;1.00
12152;DHT22;6139;51.274;7.128;2023-08-20T03:28:11;20.10;1.00
12152;DHT22;6139;51.274;7.128;2023-08-20T03:29:13;20.00;1.00
12152;DHT22;6139;51.274;7.128;2023-08-20T03:30:14;20.00;1.00
12152;DHT22;6139;51.274;7.128;2023-08-20T03:31:18;20.00;1.00
12152;DHT22;6139;51.274;7.128;2023-08-20T03:32:21;20.00;1.00
12152;DHT22;6139;51.274;7.128;2023-08-20T03:33:25;20.00;1.00
12152;DHT22;6139;51.274;7.128;2023-08-20T03:34:27;19.90;1.00
12152;DHT22;6139;51.274;7.128;2023-08-20T03:35:28;19.90;1.00
12152;DHT22;6139;51.274;7.128;2023-08-20T03:36:31;20.00;1.00
12152;DHT22;6139;51.274;7.128;2023-08-20T03:37:33;19.90;1.00
12152;DHT22;6139;51.274;7.128;2023-08-20T03:38:35;19.90;1.00
12152;DHT22;6139;51.274;7.128;2023-08-20T03:39:36;19.90;1.00
12152;DHT22;6139;51.274;7.128;2023-08-20T03:40:37;19.90;1.00
12152;DHT22;6139;51.274;7.128;2023-08-20T03:41:38;19.90;1.00
12152;DHT22;6139;51.274;7.128;2023-08-20T03:42:40;19.90;1.00
12152;DHT22;6139;51.274;7.128;2023-08-20T03:43:41;19.90;1.00
12152;DHT22;6139;51.274;7.128;2023-08-20T03:44:44;19.80;1.00
12152;DHT22;6139;51.274;7.128;2023-08-20T03:45:45;19.80;1.00
12152;DHT22;6139;51.274;7.128;2023-08-20T03:46:51;19.80;1.00
12152;DHT22;6139;51.274;7.128;2023-08-20T03:47:52;19.80;1.00
12152;DHT22;6139;51.274;7.128;2023-08-20T03:48:54;19.80;1.00
12152;DHT22;6139;51.274;7.128;2023-08-20T03:49:56;19.80;1.00
12152;DHT22;6139;51.274;7.128;2023-08-20T03:50:57;19.80;1.00
12152;DHT22;6139;51.274;7.128;2023-08-20T03:51:59;19.80;1.00
12152;DHT22;6139;51.274;7.128;2023-08-20T03:53:03;19.80;1.00
12152;DHT22;6139;51.274;7.128;2023-08-20T03:54:05;19.80;20.00
12152;DHT22;6139;51.274;7.128;2023-08-20T03:55:07;19.80;59.60
12152;DHT22;6139;51.274;7.128;2023-08-20T03:56:08;19.80;99.90
12152;DHT22;6139;51.274;7.128;2023-08-20T03:57:10;19.80;99.90
12152;DHT22;6139;51.274;7.128;2023-08-20T03:58:11;19.80;99.90
12152;DHT22;6139;51.274;7.128;2023-08-20T03:59:13;19.80;99.90
12152;DHT22;6139;51.274;7.128;2023-08-20T04:00:14;19.90;99.90
12152;DHT22;6139;51.274;7.128;2023-08-20T04:01:17;19.90;99.90
12152;DHT22;6139;51.274;7.128;2023-08-20T04:02:18;19.90;92.90
12152;DHT22;6139;51.274;7.128;2023-08-20T04:03:20;19.90;99.90
12152;DHT22;6139;51.274;7.128;2023-08-20T04:04:22;19.90;99.90
12152;DHT22;6139;51.274;7.128;2023-08-20T04:05:24;19.90;99.90
12152;DHT22;6139;51.274;7.128;2023-08-20T04:06:25;19.90;99.90
12152;DHT22;6139;51.274;7.128;2023-08-20T04:07:28;19.90;99.90
12152;DHT22;6139;51.274;7.128;2023-08-20T04:08:29;19.90;98.20
12152;DHT22;6139;51.274;7.128;2023-08-20T04:09:32;19.90;99.70
12152;DHT22;6139;51.274;7.128;2023-08-20T04:10:33;19.90;98.30
12152;DHT22;6139;51.274;7.128;2023-08-20T04:11:35;19.90;99.90
12152;DHT22;6139;51.274;7.128;2023-08-20T04:12:37;19.90;94.90
12152;DHT22;6139;51.274;7.128;2023-08-20T04:13:39;19.90;70.00
12152;DHT22;6139;51.274;7.128;2023-08-20T04:14:44;19.90;26.10
12152;DHT22;6139;51.274;7.128;2023-08-20T04:15:46;19.90;1.00
12152;DHT22;6139;51.274;7.128;2023-08-20T04:16:47;19.90;1.00
12152;DHT22;6139;51.274;7.128;2023-08-20T04:17:49;19.90;1.00
12152;DHT22;6139;51.274;7.128;2023-08-20T04:18:50;19.90;1.00
12152;DHT22;6139;51.274;7.128;2023-08-20T04:19:54;19.90;1.00
12152;DHT22;6139;51.274;7.128;2023-08-20T04:20:55;19.90;34.60
12152;DHT22;6139;51.274;7.128;2023-08-20T04:21:58;19.80;30.80
12152;DHT22;6139;51.274;7.128;2023-08-20T04:22:59;19.80;19.30
12152;DHT22;6139;51.274;7.128;2023-08-20T04:24:00;19.80;12.40
12152;DHT22;6139;51.274;7.128;2023-08-20T04:25:02;19.70;47.20
12152;DHT22;6139;51.274;7.128;2023-08-20T04:26:03;19.70;68.80
12152;DHT22;6139;51.274;7.128;2023-08-20T04:27:06;19.70;49.90
12152;DHT22;6139;51.274;7.128;2023-08-20T04:28:08;19.60;65.50
12152;DHT22;6139;51.274;7.128;2023-08-20T04:29:10;19.70;56.50
12152;DHT22;6139;51.274;7.128;2023-08-20T04:30:12;19.60;32.50
12152;DHT22;6139;51.274;7.128;2023-08-20T04:31:14;19.60;28.00
12152;DHT22;6139;51.274;7.128;2023-08-20T04:32:24;19.60;1.00
12152;DHT22;6139;51.274;7.128;2023-08-20T04:33:27;19.60;1.00
12152;DHT22;6139;51.274;7.128;2023-08-20T04:34:28;19.60;1.00
12152;DHT22;6139;51.274;7.128;2023-08-20T04:35:32;19.60;1.00
12152;DHT22;6139;51.274;7.128;2023-08-20T04:36:34;19.60;1.00
12152;DHT22;6139;51.274;7.128;2023-08-20T04:37:35;19.60;16.60
12152;DHT22;6139;51.274;7.128;2023-08-20T04:38:36;19.50;31.30
12152;DHT22;6139;51.274;7.128;2023-08-20T04:39:38;19.50;53.10
12152;DHT22;6139;51.274;7.128;2023-08-20T04:40:39;19.50;99.90
12152;DHT22;6139;51.274;7.128;2023-08-20T04:41:41;19.50;99.90
12152;DHT22;6139;51.274;7.128;2023-08-20T04:42:47;19.50;99.90
12152;DHT22;6139;51.274;7.128;2023-08-20T04:43:49;19.50;99.90
12152;DHT22;6139;51.274;7.128;2023-08-20T04:44:52;19.40;99.90
12152;DHT22;6139;51.274;7.128;2023-08-20T04:45:54;19.40;99.90
12152;DHT22;6139;51.274;7.128;2023-08-20T04:46:56;19.40;99.90
12152;DHT22;6139;51.274;7.128;2023-08-20T04:48:00;19.40;99.90
12152;DHT22;6139;51.274;7.128;2023-08-20T04:49:01;19.40;99.90
12152;DHT22;6139;51.274;7.128;2023-08-20T04:50:03;19.50;99.90
12152;DHT22;6139;51.274;7.128;2023-08-20T04:51:08;19.50;99.90
12152;DHT22;6139;51.274;7.128;2023-08-20T04:52:11;19.50;99.90
12152;DHT22;6139;51.274;7.128;2023-08-20T04:53:12;19.50;99.90
12152;DHT22;6139;51.274;7.128;2023-08-20T04:54:14;19.50;99.90
12152;DHT22;6139;51.274;7.128;2023-08-20T04:55:15;19.50;99.90
12152;DHT22;6139;51.274;7.128;2023-08-20T04:56:18;19.50;99.90
12152;DHT22;6139;51.274;7.128;2023-08-20T04:57:19;19.50;99.90
12152;DHT22;6139;51.274;7.128;2023-08-20T04:58:21;19.50;99.90
12152;DHT22;6139;51.274;7.128;2023-08-20T04:59:22;19.50;99.90
12152;DHT22;6139;51.274;7.128;2023-08-20T05:00:47;19.50;99.90
12152;DHT22;6139;51.274;7.128;2023-08-20T05:01:49;19.50;99.90
12152;DHT22;6139;51.274;7.128;2023-08-20T05:02:54;19.50;85.00
12152;DHT22;6139;51.274;7.128;2023-08-20T05:03:56;19.50;81.80
12152;DHT22;6139;51.274;7.128;2023-08-20T05:04:59;19.50;93.90
12152;DHT22;6139;51.274;7.128;2023-08-20T05:06:00;19.50;98.00
12152;DHT22;6139;51.274;7.128;2023-08-20T05:07:04;19.50;99.90
12152;DHT22;6139;51.274;7.128;2023-08-20T05:08:05;19.50;99.90
12152;DHT22;6139;51.274;7.128;2023-08-20T05:09:08;19.50;99.90
12152;DHT22;6139;51.274;7.128;2023-08-20T05:10:09;19.50;99.90
12152;DHT22;6139;51.274;7.128;2023-08-20T05:11:11;19.50;99.90
12152;DHT22;6139;51.274;7.128;2023-08-20T05:12:12;19.60;99.90
12152;DHT22;6139;51.274;7.128;2023-08-20T05:13:13;19.60;99.90
12152;DHT22;6139;51.274;7.128;2023-08-20T05:14:14;19.60;99.90
12152;DHT22;6139;51.274;7.128;2023-08-20T05:15:16;19.70;99.90
12152;DHT22;6139;51.274;7.128;2023-08-20T05:16:17;19.70;99.90
12152;DHT22;6139;51.274;7.128;2023-08-20T05:17:19;19.70;99.90
12152;DHT22;6139;51.274;7.128;2023-08-20T05:18:20;19.70;99.90
12152;DHT22;6139;51.274;7.128;2023-08-20T05:19:23;19.70;99.90
12152;DHT22;6139;51.274;7.128;2023-08-20T05:20:24;19.80;99.90
12152;DHT22;6139;51.274;7.128;2023-08-20T05:21:26;19.80;99.90
12152;DHT22;6139;51.274;7.128;2023-08-20T05:22:28;19.80;99.90
12152;DHT22;6139;51.274;7.128;2023-08-20T05:23:30;19.80;99.90
12152;DHT22;6139;51.274;7.128;2023-08-20T05:24:32;19.80;99.90
12152;DHT22;6139;51.274;7.128;2023-08-20T05:25:34;19.80;99.90
12152;DHT22;6139;51.274;7.128;2023-08-20T05:26:35;19.80;99.90
12152;DHT22;6139;51.274;7.128;2023-08-20T05:27:37;19.80;99.90
12152;DHT22;6139;51.274;7.128;2023-08-20T05:28:38;19.80;99.90
12152;DHT22;6139;51.274;7.128;2023-08-20T05:29:40;19.80;99.90
12152;DHT22;6139;51.274;7.128;2023-08-20T05:30:41;19.80;99.90
12152;DHT22;6139;51.274;7.128;2023-08-20T05:31:43;19.80;99.90
12152;DHT22;6139;51.274;7.128;2023-08-20T05:32:45;19.80;99.90
12152;DHT22;6139;51.274;7.128;2023-08-20T05:33:47;19.80;99.90
12152;DHT22;6139;51.274;7.128;2023-08-20T05:34:48;19.80;99.90
12152;DHT22;6139;51.274;7.128;2023-08-20T05:35:50;19.80;99.90
12152;DHT22;6139;51.274;7.128;2023-08-20T05:36:52;19.90;99.90
12152;DHT22;6139;51.274;7.128;2023-08-20T05:37:55;19.80;99.90
12152;DHT22;6139;51.274;7.128;2023-08-20T05:38:56;19.90;99.90
12152;DHT22;6139;51.274;7.128;2023-08-20T05:39:59;19.90;99.90
12152;DHT22;6139;51.274;7.128;2023-08-20T05:41:00;20.00;99.90
12152;DHT22;6139;51.274;7.128;2023-08-20T05:42:03;20.00;99.90
12152;DHT22;6139;51.274;7.128;2023-08-20T05:43:05;20.00;99.90
12152;DHT22;6139;51.274;7.128;2023-08-20T05:44:06;20.00;99.90
12152;DHT22;6139;51.274;7.128;2023-08-20T05:45:08;20.10;99.90
12152;DHT22;6139;51.274;7.128;2023-08-20T05:46:10;20.20;99.90
12152;DHT22;6139;51.274;7.128;2023-08-20T05:47:12;20.20;99.90
12152;DHT22;6139;51.274;7.128;2023-08-20T05:48:13;20.20;99.90
12152;DHT22;6139;51.274;7.128;2023-08-20T05:49:15;20.20;99.90
12152;DHT22;6139;51.274;7.128;2023-08-20T05:50:17;20.30;99.90
12152;DHT22;6139;51.274;7.128;2023-08-20T05:51:19;20.30;96.30
12152;DHT22;6139;51.274;7.128;2023-08-20T05:52:20;20.30;79.80
12152;DHT22;6139;51.274;7.128;2023-08-20T05:53:23;20.30;99.90
12152;DHT22;6139;51.274;7.128;2023-08-20T05:54:25;20.30;99.90
12152;DHT22;6139;51.274;7.128;2023-08-20T05:55:29;20.40;99.90
12152;DHT22;6139;51.274;7.128;2023-08-20T05:56:30;20.40;90.00
12152;DHT22;6139;51.274;7.128;2023-08-20T05:57:31;20.40;67.80
12152;DHT22;6139;51.274;7.128;2023-08-20T05:58:33;20.40;99.90
12152;DHT22;6139;51.274;7.128;2023-08-20T05:59:35;20.40;69.40
12152;DHT22;6139;51.274;7.128;2023-08-20T06:00:37;20.40;38.60
12152;DHT22;6139;51.274;7.128;2023-08-20T06:01:38;20.40;45.60
12152;DHT22;6139;51.274;7.128;2023-08-20T06:02:40;20.30;61.20
12152;DHT22;6139;51.274;7.128;2023-08-20T06:03:41;20.30;57.40
12152;DHT22;6139;51.274;7.128;2023-08-20T06:04:44;20.30;68.50
12152;DHT22;6139;51.274;7.128;2023-08-20T06:05:45;20.30;99.90
12152;DHT22;6139;51.274;7.128;2023-08-20T06:06:47;20.30;99.90
12152;DHT22;6139;51.274;7.128;2023-08-20T06:07:47;20.30;99.90
12152;DHT22;6139;51.274;7.128;2023-08-20T06:08:51;20.30;70.60
12152;DHT22;6139;51.274;7.128;2023-08-20T06:09:52;20.30;73.90
12152;DHT22;6139;51.274;7.128;2023-08-20T06:10:54;20.30;99.90
12152;DHT22;6139;51.274;7.128;2023-08-20T06:11:55;20.30;99.90
12152;DHT22;6139;51.274;7.128;2023-08-20T06:12:57;20.30;99.90
12152;DHT22;6139;51.274;7.128;2023-08-20T06:13:58;20.30;99.90
12152;DHT22;6139;51.274;7.128;2023-08-20T06:15:00;20.30;99.90
12152;DHT22;6139;51.274;7.128;2023-08-20T06:16:01;20.30;99.90
12152;DHT22;6139;51.274;7.128;2023-08-20T06:17:03;20.30;99.90
12152;DHT22;6139;51.274;7.128;2023-08-20T06:18:04;20.30;99.90
12152;DHT22;6139;51.274;7.128;2023-08-20T06:19:06;20.40;99.90
12152;DHT22;6139;51.274;7.128;2023-08-20T06:20:08;20.40;99.90
12152;DHT22;6139;51.274;7.128;2023-08-20T06:21:12;20.40;92.10
12152;DHT22;6139;51.274;7.128;2023-08-20T06:22:13;20.40;40.60
12152;DHT22;6139;51.274;7.128;2023-08-20T06:23:15;20.40;60.00
12152;DHT22;6139;51.274;7.128;2023-08-20T06:24:18;20.40;73.10
12152;DHT22;6139;51.274;7.128;2023-08-20T06:25:20;20.50;88.70
12152;DHT22;6139;51.274;7.128;2023-08-20T06:26:21;20.50;69.70
12152;DHT22;6139;51.274;7.128;2023-08-20T06:27:23;20.50;86.10
12152;DHT22;6139;51.274;7.128;2023-08-20T06:28:24;20.50;55.10
12152;DHT22;6139;51.274;7.128;2023-08-20T06:29:26;20.60;56.30
12152;DHT22;6139;51.274;7.128;2023-08-20T06:30:27;20.60;65.70
12152;DHT22;6139;51.274;7.128;2023-08-20T06:31:29;20.70;27.80
12152;DHT22;6139;51.274;7.128;2023-08-20T06:32:30;20.70;1.00
12152;DHT22;6139;51.274;7.128;2023-08-20T06:33:32;20.70;1.00
12152;DHT22;6139;51.274;7.128;2023-08-20T06:34:33;20.70;1.00
12152;DHT22;6139;51.274;7.128;2023-08-20T06:35:35;20.80;1.00
12152;DHT22;6139;51.274;7.128;2023-08-20T06:36:36;20.80;1.00
12152;DHT22;6139;51.274;7.128;2023-08-20T06:37:38;20.90;1.00
12152;DHT22;6139;51.274;7.128;2023-08-20T06:38:40;20.90;1.00
12152;DHT22;6139;51.274;7.128;2023-08-20T06:39:43;20.90;1.00
12152;DHT22;6139;51.274;7.128;2023-08-20T06:40:44;21.00;1.00
12152;DHT22;6139;51.274;7.128;2023-08-20T06:41:46;21.00;1.00
12152;DHT22;6139;51.274;7.128;2023-08-20T06:42:54;21.10;1.00
12152;DHT22;6139;51.274;7.128;2023-08-20T06:43:56;21.10;99.90
12152;DHT22;6139;51.274;7.128;2023-08-20T06:44:57;21.10;99.90